Jamestown, Canada
Current Conditions -  °F | °C
As of 4:00 AM on Sunday 26 Oct 2014 (Local Time) from CYQX Reporting Station
Drizzle Drizzle  
Wind Chill: 30°   Ceiling: 400
Heat Index: 39°   Visibility: 4mi
Dew Point: 39°   Wind: 17mph
Humidity: 100%   Direction: 50°NE
Pressure: 29.54"   Gusts: 25mph
Location:  48.43°N, 53.8°W
Report Text: CYQX 260600Z 05015G22KT 4SM -DZ BR FEW002 BKN004 OVC011 04/04 A2954 RMK SF1SF6SC1 SLP008
Loading
Personal Weather Stations






























Interactive Weather Map
Tropical Storm Tracking
New forecast layout! Learn more

10-Day Weather Forecast

Advertisements
Track Severe Weather on mobile